Santa Margarita, California
Current Conditions -  °F | °C
As of 1:39 AM on Friday 24 Oct 2014 (Local Time) from KSBP Reporting Station
Scattered Clouds Scattered Clouds  
Wind Chill: 51°   Ceiling: Unl
Heat Index: 51°   Visibility: 10mi
Dew Point: 51°   Wind: 3mph
Humidity: 100%   Direction: 120°ESE
Pressure: 29.98"   Gusts: NA
Location:  35.39°N, 120.61°W
Report Text: KSBP 240839Z AUTO 12003KT 10SM FEW001 SCT005 11/11 A2998 RMK AO2 T01060106
Loading
Personal Weather Stations






























Interactive Weather Map
Tropical Storm Tracking
New forecast layout! Learn more

10-Day Weather Forecast

Advertisements
Track Severe Weather on mobile